Orangeburg Municipal Airport Orangeburg US
ICAO: KOGB
IATA: OGB
Category: Medium
Scheduled Services: No

Elevation: 195 ft
TransAlt. 18000 ft.

Airport Communications:
COLUMBIA APP/DEP:124.15
ASOS:118.525
CTAF/UNICOM:122.7

KOGB Zoom In..

Runways:

(A) RW 05 length 4508 ft width 100 ft
---- / hdg 49

(B) RW 17 length 5399 ft width 100 ft
---- / hdg 174

(C) RW 23 length 4508 ft width 100 ft
---- / hdg 229

(D) RW 35 length 5399 ft width 100 ft
---- / hdg 354

Location; KOGB
Day. 21 / Time. 23.53 Zulu
* Altimeter: 30.29
* Temperature: 18° c. 64.4°f.
* Wind from: 140° Speed 07 kn.
Dewpoint: 09° c.
Visibility: 10 Statute Miles.
Clouds: Scattered 5500 ft.

KOGB 212353Z AUTO 14007KT 10SM SCT055 18/09 A3029 RMK AO2 SLP257 T01830094 10228 20183 53002


Wind From 140°
Speed 07 kn.

  YouTube Music Video
 
jpsmedia.com for Web Design  worldairports.se 2018   terms of use